Time,TemperatureF,DewpointF,PressureIn,WindDirection,WindDirectionDegrees,WindSpeedMPH,WindSpeedGustMPH,Humidity,HourlyPrecipIn,Conditions,Clouds,dailyrainin,SoftwareType,DateUTC
2013-03-02 00:00:00,8.4,-25.4,29.18,North,353,0.0,0.0,19,0.00,,,0.00,VWS V13.01,2013-03-02 06:00:00,
2013-03-02 00:05:00,8.6,-25.2,29.18,North,353,0.0,0.0,19,0.00,,,0.00,VWS V13.01,2013-03-02 06:05:00,
2013-03-02 00:10:00,8.4,-25.4,29.18,North,353,0.0,0.0,19,0.00,,,0.00,VWS V13.01,2013-03-02 06:10:00,
2013-03-02 00:15:00,7.9,-25.8,29.18,North,353,0.0,0.0,19,0.00,,,0.00,VWS V13.01,2013-03-02 06:15:00,
2013-03-02 00:20:00,7.9,-25.8,29.18,North,353,0.0,0.0,19,0.00,,,0.00,VWS V13.01,2013-03-02 06:20:00,
2013-03-02 00:25:00,7.7,-26.0,29.18,North,353,0.0,0.0,19,0.00,,,0.00,VWS V13.01,2013-03-02 06:25:00,
2013-03-02 00:30:00,7.7,-26.0,29.18,North,353,0.0,0.0,19,0.00,,,0.00,VWS V13.01,2013-03-02 06:30:00,
2013-03-02 00:35:00,7.5,-26.1,29.18,North,353,0.0,0.0,19,0.00,,,0.00,VWS V13.01,2013-03-02 06:35:00,
2013-03-02 00:40:00,7.2,-26.4,29.18,North,353,0.0,0.0,19,0.00,,,0.00,VWS V13.01,2013-03-02 06:40:00,
2013-03-02 00:45:00,7.0,-26.6,29.18,North,353,0.0,0.0,19,0.00,,,0.00,VWS V13.01,2013-03-02 06:45:00,
2013-03-02 00:50:00,7.7,-26.0,29.18,NNE,15,2.2,2.2,19,0.00,,,0.00,VWS V13.01,2013-03-02 06:50:00,
2013-03-02 00:55:00,8.4,-25.4,29.18,North,11,0.0,0.0,19,0.00,,,0.00,VWS V13.01,2013-03-02 06:55:00,
2013-03-02 01:00:00,8.4,-25.4,29.18,NNW,345,0.0,0.0,19,0.00,,,0.00,VWS V13.01,2013-03-02 07:00:00,
2013-03-02 01:05:00,8.1,-25.6,29.18,NNE,19,0.0,0.0,19,0.00,,,0.00,VWS V13.01,2013-03-02 07:05:00,
2013-03-02 01:10:00,8.4,-25.4,29.15,North,353,0.0,0.0,19,0.00,,,0.00,VWS V13.01,2013-03-02 07:10:00,
2013-03-02 01:15:00,8.6,-25.2,29.15,North,353,0.0,0.0,19,0.00,,,0.00,VWS V13.01,2013-03-02 07:15:00,
2013-03-02 01:21:00,8.1,-25.6,29.15,NNW,341,0.0,0.0,19,0.00,,,0.00,VWS V13.01,2013-03-02 07:21:00,
2013-03-02 01:26:00,7.5,-26.1,29.18,NW,321,0.0,0.0,19,0.00,,,0.00,VWS V13.01,2013-03-02 07:26:00,
2013-03-02 01:31:00,7.2,-26.4,29.18,NNW,332,0.0,0.0,19,0.00,,,0.00,VWS V13.01,2013-03-02 07:31:00,
2013-03-02 01:36:00,7.0,-26.6,29.18,North,350,0.0,3.6,19,0.00,,,0.00,VWS V13.01,2013-03-02 07:36:00,
2013-03-02 01:41:00,7.7,-26.0,29.18,North,353,0.0,0.0,19,0.00,,,0.00,VWS V13.01,2013-03-02 07:41:00,
2013-03-02 01:46:00,8.1,-25.6,29.18,NW,321,0.0,0.0,19,0.00,,,0.00,VWS V13.01,2013-03-02 07:46:00,
2013-03-02 01:51:00,7.5,-26.1,29.18,North,11,0.0,0.0,19,0.00,,,0.00,VWS V13.01,2013-03-02 07:51:00,
2013-03-02 01:56:00,8.6,-25.2,29.18,NNE,30,3.1,3.1,19,0.00,,,0.00,VWS V13.01,2013-03-02 07:56:00,
2013-03-02 02:01:00,8.1,-25.6,29.18,North,353,0.0,0.0,19,0.00,,,0.00,VWS V13.01,2013-03-02 08:01:00,
2013-03-02 02:06:00,7.0,-26.6,29.18,North,353,0.0,0.0,19,0.00,,,0.00,VWS V13.01,2013-03-02 08:06:00,
2013-03-02 02:11:00,6.3,-27.2,29.18,North,353,0.0,0.0,19,0.00,,,0.00,VWS V13.01,2013-03-02 08:11:00,
2013-03-02 02:16:00,5.9,-27.5,29.18,North,353,0.0,0.0,19,0.00,,,0.00,VWS V13.01,2013-03-02 08:16:00,
2013-03-02 02:21:00,5.9,-27.5,29.18,North,353,0.0,0.0,19,0.00,,,0.00,VWS V13.01,2013-03-02 08:21:00,
2013-03-02 02:26:00,5.5,-27.8,29.18,NNW,335,0.0,0.0,19,0.00,,,0.00,VWS V13.01,2013-03-02 08:26:00,
2013-03-02 02:31:00,5.5,-27.8,29.18,NNW,338,0.0,0.0,19,0.00,,,0.00,VWS V13.01,2013-03-02 08:31:00,
2013-03-02 02:36:00,5.4,-27.9,29.18,NNW,338,0.0,0.0,19,0.00,,,0.00,VWS V13.01,2013-03-02 08:36:00,
2013-03-02 02:41:00,5.7,-27.6,29.18,NNW,338,0.0,0.0,19,0.00,,,0.00,VWS V13.01,2013-03-02 08:41:00,
2013-03-02 02:46:00,5.5,-27.8,29.18,NNW,338,0.0,0.0,19,0.00,,,0.00,VWS V13.01,2013-03-02 08:46:00,
2013-03-02 02:51:00,5.0,-28.2,29.18,NNW,338,0.0,0.0,19,0.00,,,0.00,VWS V13.01,2013-03-02 08:51:00,
2013-03-02 02:56:00,5.2,-28.1,29.18,NNW,348,0.0,0.0,19,0.00,,,0.00,VWS V13.01,2013-03-02 08:56:00,
2013-03-02 03:01:00,6.3,-27.2,29.18,North,357,0.0,0.0,19,0.00,,,0.00,VWS V13.01,2013-03-02 09:01:00,
2013-03-02 03:06:00,6.4,-27.0,29.18,North,11,0.0,0.0,19,0.00,,,0.00,VWS V13.01,2013-03-02 09:06:00,
2013-03-02 03:11:00,7.2,-26.4,29.15,NNE,20,2.2,2.2,19,0.00,,,0.00,VWS V13.01,2013-03-02 09:11:00,
2013-03-02 03:16:00,7.2,-26.4,29.15,NNE,20,3.1,3.1,19,0.00,,,0.00,VWS V13.01,2013-03-02 09:16:00,
2013-03-02 03:21:00,7.5,-26.1,29.15,North,10,2.7,2.7,19,0.00,,,0.00,VWS V13.01,2013-03-02 09:21:00,
2013-03-02 03:26:00,7.3,-26.3,29.15,NNE,21,0.0,0.0,19,0.00,,,0.00,VWS V13.01,2013-03-02 09:26:00,
2013-03-02 03:31:00,6.8,-26.7,29.15,NW,308,2.2,2.2,19,0.00,,,0.00,VWS V13.01,2013-03-02 09:31:00,
2013-03-02 03:36:00,6.6,-26.9,29.15,NNW,341,0.0,0.0,19,0.00,,,0.00,VWS V13.01,2013-03-02 09:36:00,
2013-03-02 03:41:00,5.9,-27.5,29.18,North,353,0.0,0.0,19,0.00,,,0.00,VWS V13.01,2013-03-02 09:41:00,
2013-03-02 03:46:00,5.5,-27.8,29.18,North,353,0.0,0.0,19,0.00,,,0.00,VWS V13.01,2013-03-02 09:46:00,
2013-03-02 03:51:00,5.0,-28.2,29.18,North,353,0.0,0.0,19,0.00,,,0.00,VWS V13.01,2013-03-02 09:51:00,
2013-03-02 03:56:00,4.3,-28.8,29.18,North,353,0.0,0.0,19,0.00,,,0.00,VWS V13.01,2013-03-02 09:56:00,
2013-03-02 04:01:00,2.8,-30.0,29.18,North,353,0.0,0.0,19,0.00,,,0.00,VWS V13.01,2013-03-02 10:01:00,
2013-03-02 04:06:00,2.5,-30.4,29.18,North,353,0.0,0.0,19,0.00,,,0.00,VWS V13.01,2013-03-02 10:06:00,
2013-03-02 04:11:00,1.9,-30.8,29.18,North,353,0.0,0.0,19,0.00,,,0.00,VWS V13.01,2013-03-02 10:11:00,
2013-03-02 04:16:00,1.6,-31.1,29.18,North,353,0.0,0.0,19,0.00,,,0.00,VWS V13.01,2013-03-02 10:16:00,
2013-03-02 04:21:00,1.6,-31.1,29.18,North,353,0.0,0.0,19,0.00,,,0.00,VWS V13.01,2013-03-02 10:21:00,
2013-03-02 04:26:00,1.4,-31.3,29.18,North,353,0.0,0.0,19,0.00,,,0.00,VWS V13.01,2013-03-02 10:26:00,
2013-03-02 04:31:00,0.7,-31.9,29.18,North,353,0.0,0.0,19,0.00,,,0.00,VWS V13.01,2013-03-02 10:31:00,
2013-03-02 04:36:00,0.7,-31.9,29.18,North,353,0.0,0.0,19,0.00,,,0.00,VWS V13.01,2013-03-02 10:36:00,
2013-03-02 04:41:00,1.2,-31.4,29.18,North,353,0.0,0.0,19,0.00,,,0.00,VWS V13.01,2013-03-02 10:41:00,
2013-03-02 04:46:00,1.8,-31.0,29.18,North,353,0.0,0.0,19,0.00,,,0.00,VWS V13.01,2013-03-02 10:46:00,
2013-03-02 04:51:00,2.5,-30.4,29.18,North,353,0.0,0.0,19,0.00,,,0.00,VWS V13.01,2013-03-02 10:51:00,
2013-03-02 04:56:00,2.3,-30.5,29.15,North,353,0.0,0.0,19,0.00,,,0.00,VWS V13.01,2013-03-02 10:56:00,
2013-03-02 05:01:00,1.6,-31.1,29.15,North,353,0.0,0.0,19,0.00,,,0.00,VWS V13.01,2013-03-02 11:01:00,
2013-03-02 05:06:00,0.7,-31.9,29.15,North,353,0.0,0.0,19,0.00,,,0.00,VWS V13.01,2013-03-02 11:06:00,
2013-03-02 05:11:00,0.5,-32.0,29.15,North,353,0.0,0.0,19,0.00,,,0.00,VWS V13.01,2013-03-02 11:11:00,
2013-03-02 05:16:00,1.0,-31.6,29.15,North,353,0.0,0.0,19,0.00,,,0.00,VWS V13.01,2013-03-02 11:16:00,
2013-03-02 05:21:00,0.3,-32.2,29.15,North,353,0.0,0.0,19,0.00,,,0.00,VWS V13.01,2013-03-02 11:21:00,
2013-03-02 05:26:00,0.0,-32.5,29.15,North,353,0.0,0.0,19,0.00,,,0.00,VWS V13.01,2013-03-02 11:26:00,
2013-03-02 05:31:00,0.7,-31.9,29.15,North,353,0.0,0.0,19,0.00,,,0.00,VWS V13.01,2013-03-02 11:31:00,
2013-03-02 05:36:00,1.6,-31.1,29.15,North,4,0.0,0.0,19,0.00,,,0.00,VWS V13.01,2013-03-02 11:36:00,
2013-03-02 05:41:00,2.3,-30.5,29.15,North,4,0.0,0.0,19,0.00,,,0.00,VWS V13.01,2013-03-02 11:41:00,
2013-03-02 05:46:00,1.9,-30.8,29.15,North,4,0.0,0.0,19,0.00,,,0.00,VWS V13.01,2013-03-02 11:46:00,
2013-03-02 05:51:00,1.4,-31.3,29.15,North,4,0.0,0.0,19,0.00,,,0.00,VWS V13.01,2013-03-02 11:51:00,
2013-03-02 05:56:00,0.9,-31.7,29.15,North,4,0.0,0.0,19,0.00,,,0.00,VWS V13.01,2013-03-02 11:56:00,
2013-03-02 06:01:00,1.0,-31.6,29.15,North,4,0.0,0.0,19,0.00,,,0.00,VWS V13.01,2013-03-02 12:01:00,
2013-03-02 06:06:00,0.3,-32.2,29.15,North,4,0.0,0.0,19,0.00,,,0.00,VWS V13.01,2013-03-02 12:06:00,
2013-03-02 06:11:00,0.0,-32.5,29.18,North,4,0.0,0.0,19,0.00,,,0.00,VWS V13.01,2013-03-02 12:11:00,
2013-03-02 06:16:00,0.0,-32.5,29.18,North,4,0.0,0.0,19,0.00,,,0.00,VWS V13.01,2013-03-02 12:16:00,
2013-03-02 06:21:00,0.0,-32.5,29.18,North,4,0.0,0.0,19,0.00,,,0.00,VWS V13.01,2013-03-02 12:21:00,
2013-03-02 06:26:00,0.1,-32.3,29.18,North,4,0.0,0.0,19,0.00,,,0.00,VWS V13.01,2013-03-02 12:26:00,
2013-03-02 06:31:00,0.1,-32.3,29.18,North,4,0.0,0.0,19,0.00,,,0.00,VWS V13.01,2013-03-02 12:31:00,
2013-03-02 06:36:00,0.0,-32.5,29.18,North,4,0.0,0.0,19,0.00,,,0.00,VWS V13.01,2013-03-02 12:36:00,
2013-03-02 06:41:00,-0.2,-32.6,29.18,North,4,0.0,0.0,19,0.00,,,0.00,VWS V13.01,2013-03-02 12:41:00,
2013-03-02 06:46:00,-0.8,-33.1,29.18,North,4,0.0,0.0,19,0.00,,,0.00,VWS V13.01,2013-03-02 12:46:00,
2013-03-02 06:51:00,-0.8,-33.1,29.18,North,4,0.0,0.0,19,0.00,,,0.00,VWS V13.01,2013-03-02 12:51:00,
2013-03-02 06:56:00,-0.9,-33.2,29.18,North,4,0.0,0.0,19,0.00,,,0.00,VWS V13.01,2013-03-02 12:56:00,
2013-03-02 07:01:00,-0.8,-33.1,29.18,North,4,0.0,0.0,19,0.00,,,0.00,VWS V13.01,2013-03-02 13:01:00,
2013-03-02 07:06:00,-0.8,-33.1,29.18,North,4,0.0,0.0,19,0.00,,,0.00,VWS V13.01,2013-03-02 13:06:00,
2013-03-02 07:11:00,0.0,-32.5,29.18,North,4,0.0,0.0,19,0.00,,,0.00,VWS V13.01,2013-03-02 13:11:00,
2013-03-02 07:16:00,0.1,-32.3,29.18,North,4,0.0,0.0,19,0.00,,,0.00,VWS V13.01,2013-03-02 13:16:00,
2013-03-02 07:21:00,0.3,-32.2,29.18,North,4,0.0,0.0,19,0.00,,,0.00,VWS V13.01,2013-03-02 13:21:00,
2013-03-02 07:26:00,1.2,-31.4,29.18,North,4,0.0,0.0,19,0.00,,,0.00,VWS V13.01,2013-03-02 13:26:00,
2013-03-02 07:31:00,3.2,-29.8,29.18,North,4,0.0,0.0,19,0.00,,,0.00,VWS V13.01,2013-03-02 13:31:00,
2013-03-02 07:36:00,5.4,-27.9,29.18,North,4,0.0,0.0,19,0.00,,,0.00,VWS V13.01,2013-03-02 13:36:00,
2013-03-02 07:41:00,6.1,-27.3,29.18,North,4,0.0,0.0,19,0.00,,,0.00,VWS V13.01,2013-03-02 13:41:00,
2013-03-02 07:46:00,8.8,-25.0,29.18,North,4,0.0,0.0,19,0.00,,,0.00,VWS V13.01,2013-03-02 13:46:00,
2013-03-02 07:51:00,10.0,-24.0,29.18,North,4,0.0,0.0,19,0.00,,,0.00,VWS V13.01,2013-03-02 13:51:00,
2013-03-02 07:56:00,11.7,-22.6,29.18,ENE,59,0.0,0.0,19,0.00,,,0.00,VWS V13.01,2013-03-02 13:56:00,
2013-03-02 08:01:00,14.5,-8.7,29.18,NE,46,0.0,0.0,34,0.00,,,0.00,VWS V13.01,2013-03-02 14:01:00,
2013-03-02 08:06:00,16.2,-9.1,29.18,NE,52,0.0,0.0,31,0.00,,,0.00,VWS V13.01,2013-03-02 14:06:00,
2013-03-02 08:11:00,18.3,-7.9,29.18,NE,52,0.0,0.0,30,0.00,,,0.00,VWS V13.01,2013-03-02 14:11:00,
2013-03-02 08:16:00,21.6,-5.1,29.18,NE,52,0.0,0.0,30,0.00,,,0.00,VWS V13.01,2013-03-02 14:16:00,
2013-03-02 08:21:00,21.7,-8.6,29.18,NE,45,0.0,0.0,25,0.00,,,0.00,VWS V13.01,2013-03-02 14:21:00,
2013-03-02 08:26:00,21.0,-16.9,29.18,NNE,31,0.0,0.0,17,0.00,,,0.00,VWS V13.01,2013-03-02 14:26:00,
2013-03-02 08:31:00,17.8,-22.0,29.18,NNE,33,0.0,0.0,15,0.00,,,0.00,VWS V13.01,2013-03-02 14:31:00,
2013-03-02 08:36:00,17.6,-20.9,29.18,NE,50,0.0,0.0,16,0.00,,,0.00,VWS V13.01,2013-03-02 14:36:00,
2013-03-02 08:41:00,15.4,-22.7,29.18,NE,44,0.0,0.0,16,0.00,,,0.00,VWS V13.01,2013-03-02 14:41:00,
2013-03-02 08:46:00,12.7,-25.0,29.18,NE,43,0.0,2.7,16,0.00,,,0.00,VWS V13.01,2013-03-02 14:46:00,
2013-03-02 08:51:00,13.5,-24.4,29.18,NE,38,0.0,0.0,16,0.00,,,0.00,VWS V13.01,2013-03-02 14:51:00,
2013-03-02 08:56:00,14.0,-22.8,29.18,NNE,33,2.7,2.7,17,0.00,,,0.00,VWS V13.01,2013-03-02 14:56:00,
2013-03-02 09:01:00,14.5,-23.5,29.18,ENE,61,2.7,2.7,16,0.00,,,0.00,VWS V13.01,2013-03-02 15:01:00,
2013-03-02 09:06:00,15.1,-19.8,29.18,ENE,62,2.7,4.0,19,0.00,,,0.00,VWS V13.01,2013-03-02 15:06:00,
2013-03-02 09:11:00,20.3,-17.5,29.15,NE,49,0.0,0.0,17,0.00,,,0.00,VWS V13.01,2013-03-02 15:11:00,
2013-03-02 09:16:00,19.8,-18.0,29.15,ENE,61,4.9,4.9,17,0.00,,,0.00,VWS V13.01,2013-03-02 15:16:00,
2013-03-02 09:21:00,22.6,-15.6,29.15,ENE,71,0.0,0.0,17,0.00,,,0.00,VWS V13.01,2013-03-02 15:21:00,
2013-03-02 09:26:00,22.8,-15.4,29.15,ENE,78,0.0,0.0,17,0.00,,,0.00,VWS V13.01,2013-03-02 15:26:00,
2013-03-02 09:31:00,20.8,-17.1,29.15,East,98,3.6,3.6,17,0.00,,,0.00,VWS V13.01,2013-03-02 15:31:00,
2013-03-02 09:36:00,22.8,-15.4,29.15,East,82,0.0,2.2,17,0.00,,,0.00,VWS V13.01,2013-03-02 15:36:00,
2013-03-02 09:41:00,21.6,-16.5,29.15,East,98,4.9,6.3,17,0.00,,,0.00,VWS V13.01,2013-03-02 15:41:00,
2013-03-02 09:46:00,22.1,-16.0,29.15,ENE,69,3.1,5.8,17,0.00,,,0.00,VWS V13.01,2013-03-02 15:46:00,
2013-03-02 09:51:00,20.3,-17.5,29.15,East,93,3.1,5.4,17,0.00,,,0.00,VWS V13.01,2013-03-02 15:51:00,
2013-03-02 09:56:00,23.2,-15.2,29.15,ESE,104,5.8,5.8,17,0.00,,,0.00,VWS V13.01,2013-03-02 15:56:00,
2013-03-02 10:01:00,23.0,-15.3,29.15,ENE,76,0.0,3.6,17,0.00,,,0.00,VWS V13.01,2013-03-02 16:01:00,
2013-03-02 10:06:00,24.4,-14.1,29.15,ENE,73,0.0,0.0,17,0.00,,,0.00,VWS V13.01,2013-03-02 16:06:00,
2013-03-02 10:11:00,26.2,-13.8,29.15,ENE,76,0.0,0.0,16,0.00,,,0.00,VWS V13.01,2013-03-02 16:11:00,
2013-03-02 10:16:00,27.1,-13.1,29.15,ENE,72,0.0,0.0,16,0.00,,,0.00,VWS V13.01,2013-03-02 16:16:00,
2013-03-02 10:21:00,31.8,-10.6,29.15,SE,146,2.7,2.7,15,0.00,,,0.00,VWS V13.01,2013-03-02 16:21:00,
2013-03-02 10:26:00,33.1,-9.5,29.15,SE,130,0.0,2.2,15,0.00,,,0.00,VWS V13.01,2013-03-02 16:26:00,
2013-03-02 10:31:00,33.8,-8.9,29.15,SSE,167,4.0,4.0,15,0.00,,,0.00,VWS V13.01,2013-03-02 16:31:00,
2013-03-02 10:36:00,27.5,-12.8,29.15,SSE,157,5.4,5.4,16,0.00,,,0.00,VWS V13.01,2013-03-02 16:36:00,
2013-03-02 10:41:00,26.1,-14.0,29.15,SSE,157,4.0,4.9,16,0.00,,,0.00,VWS V13.01,2013-03-02 16:41:00,
2013-03-02 10:46:00,31.1,-11.1,29.15,ESE,115,5.4,5.4,15,0.00,,,0.00,VWS V13.01,2013-03-02 16:46:00,
2013-03-02 10:51:00,32.5,-10.0,29.15,SSE,163,5.4,5.4,15,0.00,,,0.00,VWS V13.01,2013-03-02 16:51:00,
2013-03-02 10:56:00,32.9,-9.7,29.15,SE,144,3.1,4.0,15,0.00,,,0.00,VWS V13.01,2013-03-02 16:56:00,
2013-03-02 11:01:00,34.0,-8.8,29.15,SSE,147,0.0,2.2,15,0.00,,,0.00,VWS V13.01,2013-03-02 17:01:00,
2013-03-02 11:06:00,34.3,-8.5,29.15,SSE,156,3.1,4.0,15,0.00,,,0.00,VWS V13.01,2013-03-02 17:06:00,
2013-03-02 11:11:00,33.4,-9.2,29.15,SSE,149,3.1,5.4,15,0.00,,,0.00,VWS V13.01,2013-03-02 17:11:00,
2013-03-02 11:16:00,33.1,-9.5,29.15,SSE,154,2.7,4.0,15,0.00,,,0.00,VWS V13.01,2013-03-02 17:16:00,
2013-03-02 11:21:00,33.6,-9.1,29.15,SSE,165,3.1,3.1,15,0.00,,,0.00,VWS V13.01,2013-03-02 17:21:00,
2013-03-02 11:26:00,35.6,-8.9,29.15,ESE,123,2.7,4.9,14,0.00,,,0.00,VWS V13.01,2013-03-02 17:26:00,
2013-03-02 11:31:00,36.3,-8.3,29.15,SE,132,2.7,2.7,14,0.00,,,0.00,VWS V13.01,2013-03-02 17:31:00,
2013-03-02 11:36:00,39.7,-7.1,29.15,ESE,117,0.0,0.0,13,0.00,,,0.00,VWS V13.01,2013-03-02 17:36:00,
2013-03-02 11:41:00,43.0,-4.5,29.15,South,170,0.0,0.0,13,0.00,,,0.00,VWS V13.01,2013-03-02 17:41:00,
2013-03-02 11:46:00,41.9,-5.3,29.15,SE,125,2.2,4.0,13,0.00,,,0.00,VWS V13.01,2013-03-02 17:46:00,
2013-03-02 11:51:00,40.3,-6.7,29.15,ESE,115,0.0,0.0,13,0.00,,,0.00,VWS V13.01,2013-03-02 17:51:00,
2013-03-02 11:56:00,39.9,-6.9,29.15,SSW,192,0.0,2.7,13,0.00,,,0.00,VWS V13.01,2013-03-02 17:56:00,
2013-03-02 12:01:00,36.9,-7.9,29.15,NW,306,3.1,4.0,14,0.00,,,0.00,VWS V13.01,2013-03-02 18:01:00,
2013-03-02 12:06:00,34.2,-8.6,29.15,North,11,0.0,3.6,15,0.00,,,0.00,VWS V13.01,2013-03-02 18:06:00,
2013-03-02 12:11:00,39.2,-7.5,29.12,SSE,156,0.0,0.0,13,0.00,,,0.00,VWS V13.01,2013-03-02 18:11:00,
2013-03-02 12:16:00,40.3,-6.7,29.12,South,180,2.7,2.7,13,0.00,,,0.00,VWS V13.01,2013-03-02 18:16:00,
2013-03-02 12:21:00,40.5,-6.5,29.12,NE,43,0.0,0.0,13,0.00,,,0.00,VWS V13.01,2013-03-02 18:21:00,
2013-03-02 12:26:00,38.7,-6.4,29.12,SSE,155,3.1,3.1,14,0.00,,,0.00,VWS V13.01,2013-03-02 18:26:00,
2013-03-02 12:31:00,40.3,-6.7,29.12,ESE,118,0.0,0.0,13,0.00,,,0.00,VWS V13.01,2013-03-02 18:31:00,
2013-03-02 12:36:00,41.0,-6.1,29.12,ESE,114,0.0,0.0,13,0.00,,,0.00,VWS V13.01,2013-03-02 18:36:00,
2013-03-02 12:41:00,41.7,-5.5,29.12,ESE,119,4.0,4.0,13,0.00,,,0.00,VWS V13.01,2013-03-02 18:41:00,
2013-03-02 12:46:00,37.2,-7.6,29.12,East,92,3.1,3.6,14,0.00,,,0.00,VWS V13.01,2013-03-02 18:46:00,
2013-03-02 12:51:00,35.4,-7.6,29.12,NNE,21,2.2,2.2,15,0.00,,,0.00,VWS V13.01,2013-03-02 18:51:00,
2013-03-02 12:56:00,35.2,-7.8,29.12,ESE,113,3.6,4.5,15,0.00,,,0.00,VWS V13.01,2013-03-02 18:56:00,
2013-03-02 13:01:00,40.6,-6.4,29.12,ESE,114,0.0,0.0,13,0.00,,,0.00,VWS V13.01,2013-03-02 19:01:00,
2013-03-02 13:06:00,43.3,-4.2,29.12,SE,130,0.0,0.0,13,0.00,,,0.00,VWS V13.01,2013-03-02 19:06:00,
2013-03-02 13:11:00,45.9,-3.9,29.12,SE,143,0.0,0.0,12,0.00,,,0.00,VWS V13.01,2013-03-02 19:11:00,
2013-03-02 13:16:00,46.2,-3.6,29.12,SE,138,0.0,0.0,12,0.00,,,0.00,VWS V13.01,2013-03-02 19:16:00,
2013-03-02 13:21:00,37.6,-7.3,29.12,ENE,60,4.0,4.0,14,0.00,,,0.00,VWS V13.01,2013-03-02 19:21:00,
2013-03-02 13:26:00,39.4,-7.4,29.09,WNW,303,0.0,0.0,13,0.00,,,0.00,VWS V13.01,2013-03-02 19:26:00,
2013-03-02 13:31:00,39.7,-7.1,29.09,West,267,2.7,3.1,13,0.00,,,0.00,VWS V13.01,2013-03-02 19:31:00,
2013-03-02 13:36:00,37.2,-7.6,29.09,South,182,3.1,3.1,14,0.00,,,0.00,VWS V13.01,2013-03-02 19:36:00,
2013-03-02 13:41:00,34.5,-8.4,29.09,West,275,3.1,3.6,15,0.00,,,0.00,VWS V13.01,2013-03-02 19:41:00,
2013-03-02 13:46:00,34.5,-8.4,29.09,WSW,255,3.1,3.1,15,0.00,,,0.00,VWS V13.01,2013-03-02 19:46:00,
2013-03-02 13:51:00,34.9,-8.1,29.09,West,281,0.0,0.0,15,0.00,,,0.00,VWS V13.01,2013-03-02 19:51:00,
2013-03-02 13:57:00,34.9,-8.1,29.09,West,262,0.0,0.0,15,0.00,,,0.00,VWS V13.01,2013-03-02 19:57:00,
2013-03-02 14:02:00,32.2,-10.3,29.09,WNW,287,4.0,4.9,15,0.00,,,0.00,VWS V13.01,2013-03-02 20:02:00,
2013-03-02 14:07:00,31.3,-11.0,29.09,North,357,3.6,3.6,15,0.00,,,0.00,VWS V13.01,2013-03-02 20:07:00,
2013-03-02 14:12:00,31.3,-11.0,29.09,NW,308,0.0,3.1,15,0.00,,,0.00,VWS V13.01,2013-03-02 20:12:00,
2013-03-02 14:17:00,30.7,-11.4,29.09,North,0,2.7,3.6,15,0.00,,,0.00,VWS V13.01,2013-03-02 20:17:00,
2013-03-02 14:22:00,33.1,-9.5,29.09,NNE,23,0.0,0.0,15,0.00,,,0.00,VWS V13.01,2013-03-02 20:22:00,
2013-03-02 14:27:00,34.0,-8.8,29.06,ESE,111,0.0,0.0,15,0.00,,,0.00,VWS V13.01,2013-03-02 20:27:00,
2013-03-02 14:32:00,37.9,-7.0,29.06,SW,230,3.1,4.9,14,0.00,,,0.00,VWS V13.01,2013-03-02 20:32:00,
2013-03-02 14:37:00,37.6,-7.3,29.06,SW,230,0.0,3.6,14,0.00,,,0.00,VWS V13.01,2013-03-02 20:37:00,
2013-03-02 14:42:00,37.6,-7.3,29.09,WNW,301,0.0,3.1,14,0.00,,,0.00,VWS V13.01,2013-03-02 20:42:00,
2013-03-02 14:47:00,37.8,-7.2,29.09,NNE,19,0.0,0.0,14,0.00,,,0.00,VWS V13.01,2013-03-02 20:47:00,
2013-03-02 14:52:00,40.3,-6.7,29.09,SSW,206,3.1,5.4,13,0.00,,,0.00,VWS V13.01,2013-03-02 20:52:00,
2013-03-02 14:57:00,39.4,-7.4,29.06,SW,235,2.7,4.0,13,0.00,,,0.00,VWS V13.01,2013-03-02 20:57:00,
2013-03-02 15:02:00,39.4,-7.4,29.06,SSE,165,2.7,3.1,13,0.00,,,0.00,VWS V13.01,2013-03-02 21:02:00,
2013-03-02 15:07:00,39.4,-7.4,29.06,SSW,213,0.0,0.0,13,0.00,,,0.00,VWS V13.01,2013-03-02 21:07:00,
2013-03-02 15:12:00,37.6,-7.3,29.06,WSW,258,3.1,3.1,14,0.00,,,0.00,VWS V13.01,2013-03-02 21:12:00,
2013-03-02 15:17:00,39.0,-6.1,29.06,SSW,192,0.0,0.0,14,0.00,,,0.00,VWS V13.01,2013-03-02 21:17:00,
2013-03-02 15:22:00,39.0,-6.1,29.06,WNW,288,0.0,0.0,14,0.00,,,0.00,VWS V13.01,2013-03-02 21:22:00,
2013-03-02 15:27:00,37.4,-7.4,29.06,NW,305,2.2,2.2,14,0.00,,,0.00,VWS V13.01,2013-03-02 21:27:00,
2013-03-02 15:32:00,38.7,-6.4,29.06,WSW,248,0.0,4.0,14,0.00,,,0.00,VWS V13.01,2013-03-02 21:32:00,
2013-03-02 15:37:00,37.8,-7.2,29.06,WNW,296,2.2,2.7,14,0.00,,,0.00,VWS V13.01,2013-03-02 21:37:00,
2013-03-02 15:42:00,38.8,-6.3,29.06,SSW,198,0.0,0.0,14,0.00,,,0.00,VWS V13.01,2013-03-02 21:42:00,
2013-03-02 15:47:00,39.2,-7.5,29.06,WNW,286,2.2,2.2,13,0.00,,,0.00,VWS V13.01,2013-03-02 21:47:00,
2013-03-02 15:52:00,39.4,-7.4,29.06,ESE,121,2.7,2.7,13,0.00,,,0.00,VWS V13.01,2013-03-02 21:52:00,
2013-03-02 15:57:00,43.3,-4.2,29.06,South,178,2.7,3.1,13,0.00,,,0.00,VWS V13.01,2013-03-02 21:57:00,
2013-03-02 16:02:00,39.7,-7.1,29.06,SSE,162,0.0,0.0,13,0.00,,,0.00,VWS V13.01,2013-03-02 22:02:00,
2013-03-02 16:07:00,38.7,-6.4,29.06,SSE,154,3.6,3.6,14,0.00,,,0.00,VWS V13.01,2013-03-02 22:07:00,
2013-03-02 16:12:00,34.7,-8.2,29.06,ESE,108,0.0,0.0,15,0.00,,,0.00,VWS V13.01,2013-03-02 22:12:00,
2013-03-02 16:17:00,35.2,-7.8,29.06,SE,140,0.0,0.0,15,0.00,,,0.00,VWS V13.01,2013-03-02 22:17:00,
2013-03-02 16:22:00,36.1,-8.4,29.06,SSW,196,0.0,0.0,14,0.00,,,0.00,VWS V13.01,2013-03-02 22:22:00,
2013-03-02 16:27:00,32.9,-9.7,29.06,ESE,108,2.7,2.7,15,0.00,,,0.00,VWS V13.01,2013-03-02 22:27:00,
2013-03-02 16:32:00,33.1,-9.5,29.06,SE,127,2.2,2.2,15,0.00,,,0.00,VWS V13.01,2013-03-02 22:32:00,
2013-03-02 16:37:00,32.7,-9.8,29.06,SE,135,0.0,0.0,15,0.00,,,0.00,VWS V13.01,2013-03-02 22:37:00,
2013-03-02 16:42:00,35.6,-8.9,29.06,SSW,212,0.0,0.0,14,0.00,,,0.00,VWS V13.01,2013-03-02 22:42:00,
2013-03-02 16:47:00,34.7,-8.2,29.06,SE,146,0.0,0.0,15,0.00,,,0.00,VWS V13.01,2013-03-02 22:47:00,
2013-03-02 16:52:00,34.7,-8.2,29.06,SSE,167,0.0,0.0,15,0.00,,,0.00,VWS V13.01,2013-03-02 22:52:00,
2013-03-02 16:57:00,33.3,-9.4,29.06,SSW,200,3.1,3.1,15,0.00,,,0.00,VWS V13.01,2013-03-02 22:57:00,
2013-03-02 17:02:00,30.0,-12.0,29.06,SSW,194,0.0,3.1,15,0.00,,,0.00,VWS V13.01,2013-03-02 23:02:00,
2013-03-02 17:07:00,27.3,-12.9,29.06,SSW,207,0.0,0.0,16,0.00,,,0.00,VWS V13.01,2013-03-02 23:07:00,
2013-03-02 17:12:00,26.2,-13.8,29.06,WSW,242,0.0,0.0,16,0.00,,,0.00,VWS V13.01,2013-03-02 23:12:00,
2013-03-02 17:17:00,25.3,-14.6,29.06,West,261,0.0,0.0,16,0.00,,,0.00,VWS V13.01,2013-03-02 23:17:00,
2013-03-02 17:22:00,24.3,-14.3,29.06,WSW,243,0.0,0.0,17,0.00,,,0.00,VWS V13.01,2013-03-02 23:22:00,
2013-03-02 17:27:00,23.5,-14.9,29.06,WSW,246,0.0,0.0,17,0.00,,,0.00,VWS V13.01,2013-03-02 23:27:00,
2013-03-02 17:32:00,22.5,-15.8,29.06,WSW,246,0.0,0.0,17,0.00,,,0.00,VWS V13.01,2013-03-02 23:32:00,
2013-03-02 17:37:00,21.9,-16.2,29.06,WSW,246,0.0,0.0,17,0.00,,,0.00,VWS V13.01,2013-03-02 23:37:00,
2013-03-02 17:42:00,21.9,-16.2,29.06,WSW,246,0.0,0.0,17,0.00,,,0.00,VWS V13.01,2013-03-02 23:42:00,
2013-03-02 17:47:00,21.4,-16.6,29.06,WSW,249,0.0,0.0,17,0.00,,,0.00,VWS V13.01,2013-03-02 23:47:00,
2013-03-02 17:52:00,21.0,-16.9,29.06,WSW,249,0.0,0.0,17,0.00,,,0.00,VWS V13.01,2013-03-02 23:52:00,
2013-03-02 17:57:00,21.6,-16.5,29.06,WSW,248,0.0,0.0,17,0.00,,,0.00,VWS V13.01,2013-03-02 23:57:00,
2013-03-02 18:02:00,21.9,-16.2,29.06,WSW,248,0.0,0.0,17,0.00,,,0.00,VWS V13.01,2013-03-03 00:02:00,
2013-03-02 18:07:00,22.1,-16.0,29.06,WSW,248,0.0,0.0,17,0.00,,,0.00,VWS V13.01,2013-03-03 00:07:00,
2013-03-02 18:12:00,22.3,-15.9,29.06,WSW,249,0.0,0.0,17,0.00,,,0.00,VWS V13.01,2013-03-03 00:12:00,
2013-03-02 18:17:00,22.3,-15.9,29.06,WSW,240,0.0,0.0,17,0.00,,,0.00,VWS V13.01,2013-03-03 00:17:00,
2013-03-02 18:22:00,22.1,-16.0,29.06,WSW,241,0.0,0.0,17,0.00,,,0.00,VWS V13.01,2013-03-03 00:22:00,
2013-03-02 18:27:00,21.9,-16.2,29.06,WSW,241,0.0,0.0,17,0.00,,,0.00,VWS V13.01,2013-03-03 00:27:00,
2013-03-02 18:32:00,21.7,-16.4,29.06,WSW,241,0.0,0.0,17,0.00,,,0.00,VWS V13.01,2013-03-03 00:32:00,
2013-03-02 18:37:00,21.9,-16.2,29.06,WSW,240,0.0,0.0,17,0.00,,,0.00,VWS V13.01,2013-03-03 00:37:00,
2013-03-02 18:42:00,21.9,-16.2,29.06,WSW,240,0.0,0.0,17,0.00,,,0.00,VWS V13.01,2013-03-03 00:42:00,
2013-03-02 18:47:00,21.9,-16.2,29.06,WSW,240,0.0,0.0,17,0.00,,,0.00,VWS V13.01,2013-03-03 00:47:00,
2013-03-02 18:52:00,21.9,-16.2,29.06,WSW,240,0.0,0.0,17,0.00,,,0.00,VWS V13.01,2013-03-03 00:52:00,
2013-03-02 18:57:00,21.9,-16.2,29.06,WSW,240,0.0,0.0,17,0.00,,,0.00,VWS V13.01,2013-03-03 00:57:00,
2013-03-02 19:02:00,21.7,-16.4,29.06,WSW,240,0.0,0.0,17,0.00,,,0.00,VWS V13.01,2013-03-03 01:02:00,
2013-03-02 19:07:00,21.4,-16.6,29.06,WSW,240,0.0,0.0,17,0.00,,,0.00,VWS V13.01,2013-03-03 01:07:00,
2013-03-02 19:12:00,21.2,-16.8,29.06,WSW,240,0.0,0.0,17,0.00,,,0.00,VWS V13.01,2013-03-03 01:12:00,
2013-03-02 19:17:00,21.4,-16.6,29.06,WSW,240,0.0,0.0,17,0.00,,,0.00,VWS V13.01,2013-03-03 01:17:00,
2013-03-02 19:22:00,21.4,-16.6,29.06,WSW,240,0.0,0.0,17,0.00,,,0.00,VWS V13.01,2013-03-03 01:22:00,
2013-03-02 19:27:00,21.4,-16.6,29.06,WSW,240,0.0,0.0,17,0.00,,,0.00,VWS V13.01,2013-03-03 01:27:00,
2013-03-02 19:32:00,21.7,-16.4,29.06,WSW,240,0.0,0.0,17,0.00,,,0.00,VWS V13.01,2013-03-03 01:32:00,
2013-03-02 19:37:00,21.7,-16.4,29.06,WSW,240,0.0,0.0,17,0.00,,,0.00,VWS V13.01,2013-03-03 01:37:00,
2013-03-02 19:42:00,21.7,-16.4,29.06,WSW,240,0.0,0.0,17,0.00,,,0.00,VWS V13.01,2013-03-03 01:42:00,
2013-03-02 19:47:00,21.9,-16.2,29.06,WSW,240,0.0,0.0,17,0.00,,,0.00,VWS V13.01,2013-03-03 01:47:00,
2013-03-02 19:52:00,21.7,-16.4,29.06,WSW,240,0.0,0.0,17,0.00,,,0.00,VWS V13.01,2013-03-03 01:52:00,
2013-03-02 19:57:00,21.6,-16.5,29.03,SSW,194,0.0,0.0,17,0.00,,,0.00,VWS V13.01,2013-03-03 01:57:00,
2013-03-02 20:02:00,21.6,-16.5,29.03,SSW,205,0.0,0.0,17,0.00,,,0.00,VWS V13.01,2013-03-03 02:02:00,
2013-03-02 20:07:00,21.4,-16.6,29.03,SSW,201,0.0,0.0,17,0.00,,,0.00,VWS V13.01,2013-03-03 02:07:00,
2013-03-02 20:12:00,21.4,-16.6,29.03,SSW,201,0.0,0.0,17,0.00,,,0.00,VWS V13.01,2013-03-03 02:12:00,
2013-03-02 20:17:00,21.6,-16.5,29.03,SSE,152,0.0,0.0,17,0.00,,,0.00,VWS V13.01,2013-03-03 02:17:00,
2013-03-02 20:22:00,21.7,-16.4,29.03,SE,136,0.0,0.0,17,0.00,,,0.00,VWS V13.01,2013-03-03 02:22:00,
2013-03-02 20:27:00,21.4,-16.6,29.03,SE,136,0.0,0.0,17,0.00,,,0.00,VWS V13.01,2013-03-03 02:27:00,
2013-03-02 20:32:00,20.7,-19.7,29.03,SE,136,0.0,0.0,15,0.00,,,0.00,VWS V13.01,2013-03-03 02:32:00,
2013-03-02 20:37:00,19.8,-20.4,29.03,South,169,0.0,0.0,15,0.00,,,0.00,VWS V13.01,2013-03-03 02:37:00,
2013-03-02 20:42:00,19.8,-20.4,29.03,South,169,0.0,0.0,15,0.00,,,0.00,VWS V13.01,2013-03-03 02:42:00,
2013-03-02 20:47:00,19.6,-20.5,29.03,South,169,0.0,0.0,15,0.00,,,0.00,VWS V13.01,2013-03-03 02:47:00,
2013-03-02 20:52:00,19.4,-20.7,29.03,South,169,0.0,0.0,15,0.00,,,0.00,VWS V13.01,2013-03-03 02:52:00,
2013-03-02 20:57:00,19.4,-20.7,29.03,South,169,0.0,0.0,15,0.00,,,0.00,VWS V13.01,2013-03-03 02:57:00,
2013-03-02 21:02:00,19.4,-20.7,29.03,South,169,0.0,0.0,15,0.00,,,0.00,VWS V13.01,2013-03-03 03:02:00,
2013-03-02 21:07:00,19.6,-20.5,29.03,South,169,0.0,0.0,15,0.00,,,0.00,VWS V13.01,2013-03-03 03:07:00,
2013-03-02 21:12:00,19.6,-20.5,29.03,South,169,0.0,0.0,15,0.00,,,0.00,VWS V13.01,2013-03-03 03:12:00,
2013-03-02 21:17:00,19.9,-20.2,29.03,South,169,0.0,0.0,15,0.00,,,0.00,VWS V13.01,2013-03-03 03:17:00,
2013-03-02 21:22:00,20.3,-20.0,29.03,South,169,0.0,0.0,15,0.00,,,0.00,VWS V13.01,2013-03-03 03:22:00,
2013-03-02 21:27:00,20.7,-19.7,29.03,South,169,0.0,0.0,15,0.00,,,0.00,VWS V13.01,2013-03-03 03:27:00,
2013-03-02 21:32:00,20.8,-19.5,29.03,South,169,0.0,0.0,15,0.00,,,0.00,VWS V13.01,2013-03-03 03:32:00,
2013-03-02 21:37:00,21.0,-16.9,29.03,South,169,0.0,0.0,17,0.00,,,0.00,VWS V13.01,2013-03-03 03:37:00,
2013-03-02 21:42:00,21.2,-16.8,29.03,South,169,0.0,0.0,17,0.00,,,0.00,VWS V13.01,2013-03-03 03:42:00,
2013-03-02 21:47:00,21.2,-16.8,29.03,South,169,0.0,0.0,17,0.00,,,0.00,VWS V13.01,2013-03-03 03:47:00,
2013-03-02 21:52:00,21.2,-16.8,29.03,South,169,0.0,0.0,17,0.00,,,0.00,VWS V13.01,2013-03-03 03:52:00,
2013-03-02 21:57:00,21.2,-16.8,29.03,South,169,0.0,0.0,17,0.00,,,0.00,VWS V13.01,2013-03-03 03:57:00,
2013-03-02 22:02:00,21.2,-16.8,29.03,South,169,0.0,0.0,17,0.00,,,0.00,VWS V13.01,2013-03-03 04:02:00,
2013-03-02 22:07:00,21.2,-16.8,29.03,South,169,0.0,0.0,17,0.00,,,0.00,VWS V13.01,2013-03-03 04:07:00,
2013-03-02 22:12:00,21.2,-16.8,29.03,South,169,0.0,0.0,17,0.00,,,0.00,VWS V13.01,2013-03-03 04:12:00,
2013-03-02 22:17:00,21.2,-16.8,29.03,SSE,152,0.0,0.0,17,0.00,,,0.00,VWS V13.01,2013-03-03 04:17:00,
2013-03-02 22:22:00,21.2,-16.8,29.03,SSE,147,0.0,0.0,17,0.00,,,0.00,VWS V13.01,2013-03-03 04:22:00,
2013-03-02 22:27:00,21.2,-16.8,29.03,SSE,147,0.0,0.0,17,0.00,,,0.00,VWS V13.01,2013-03-03 04:27:00,
2013-03-02 22:32:00,21.0,-16.9,29.03,SSE,147,0.0,0.0,17,0.00,,,0.00,VWS V13.01,2013-03-03 04:32:00,
2013-03-02 22:37:00,20.8,-17.1,29.03,SSE,147,0.0,0.0,17,0.00,,,0.00,VWS V13.01,2013-03-03 04:37:00,
2013-03-02 22:42:00,20.8,-17.1,29.03,SSE,148,0.0,0.0,17,0.00,,,0.00,VWS V13.01,2013-03-03 04:42:00,
2013-03-02 22:47:00,20.7,-19.7,29.03,SSE,149,0.0,0.0,15,0.00,,,0.00,VWS V13.01,2013-03-03 04:47:00,
2013-03-02 22:52:00,20.7,-17.2,29.03,SSE,149,0.0,0.0,17,0.00,,,0.00,VWS V13.01,2013-03-03 04:52:00,
2013-03-02 22:57:00,21.4,-16.6,29.03,SE,130,0.0,0.0,17,0.00,,,0.00,VWS V13.01,2013-03-03 04:57:00,
2013-03-02 23:00:00,21.4,-16.6,29.03,SE,131,0.0,0.0,17,0.00,,,0.00,VWS V13.01,2013-03-03 05:00:00,
2013-03-02 23:01:00,21.4,-16.6,29.03,SE,134,0.0,0.0,17,0.00,,,0.00,VWS V13.01,2013-03-03 05:01:00,
2013-03-02 23:06:00,21.6,-16.5,29.03,SE,132,0.0,0.0,17,0.00,,,0.00,VWS V13.01,2013-03-03 05:06:00,
2013-03-02 23:11:00,21.7,-16.4,29.03,ESE,121,0.0,0.0,17,0.00,,,0.00,VWS V13.01,2013-03-03 05:11:00,
2013-03-02 23:16:00,21.6,-16.5,29.03,ESE,121,0.0,0.0,17,0.00,,,0.00,VWS V13.01,2013-03-03 05:16:00,
2013-03-02 23:21:00,21.6,-16.5,29.03,ESE,116,0.0,0.0,17,0.00,,,0.00,VWS V13.01,2013-03-03 05:21:00,
2013-03-02 23:26:00,21.6,-16.5,29.00,ESE,116,0.0,0.0,17,0.00,,,0.00,VWS V13.01,2013-03-03 05:26:00,
2013-03-02 23:31:00,21.6,-16.5,29.00,ESE,104,0.0,0.0,17,0.00,,,0.00,VWS V13.01,2013-03-03 05:31:00,
2013-03-02 23:36:00,21.6,-16.5,29.00,SE,124,0.0,0.0,17,0.00,,,0.00,VWS V13.01,2013-03-03 05:36:00,
2013-03-02 23:41:00,21.6,-16.5,29.00,SE,136,2.7,2.7,17,0.00,,,0.00,VWS V13.01,2013-03-03 05:41:00,
2013-03-02 23:46:00,21.6,-16.5,29.00,ESE,121,2.2,3.1,17,0.00,,,0.00,VWS V13.01,2013-03-03 05:46:00,
2013-03-02 23:51:00,21.6,-16.5,29.00,ESE,117,2.2,2.2,17,0.00,,,0.00,VWS V13.01,2013-03-03 05:51:00,
2013-03-02 23:56:00,21.6,-16.5,29.00,SE,129,0.0,2.2,17,0.00,,,0.00,VWS V13.01,2013-03-03 05:56:00,